createdAt,value
2018-08-09T00:00:42.928Z,100616.36
2018-08-09T00:01:46.349Z,100611.56
2018-08-09T00:02:49.760Z,100615.96
2018-08-09T00:03:53.224Z,100614.16
2018-08-09T00:04:56.655Z,100609.97
2018-08-09T00:06:00.083Z,100608.58
2018-08-09T00:07:03.469Z,100608.78
2018-08-09T00:08:06.866Z,100605.78
2018-08-09T00:09:10.512Z,100612.16
2018-08-09T00:10:14.036Z,100615.55
2018-08-09T00:11:17.502Z,100613.36
2018-08-09T00:12:20.873Z,100613.16
2018-08-09T00:13:24.272Z,100607.56
2018-08-09T00:14:27.701Z,100616.54
2018-08-09T00:15:31.109Z,100613.16
2018-08-09T00:16:34.570Z,100609.36
2018-08-09T00:17:37.994Z,100605.97
2018-08-09T00:18:41.398Z,100608.76
2018-08-09T00:19:44.864Z,100608.76
2018-08-09T00:20:48.266Z,100607.95
2018-08-09T00:21:51.698Z,100610.16
2018-08-09T00:22:55.070Z,100605.16
2018-08-09T00:23:58.478Z,100600.17
2018-08-09T00:25:01.876Z,100601.57
2018-08-09T00:26:05.696Z,100601.78
2018-08-09T00:27:09.091Z,100595.19
2018-08-09T00:28:12.528Z,100595.98
2018-08-09T00:29:15.928Z,100597.38
2018-08-09T00:30:19.340Z,100600.98
2018-08-09T00:31:22.736Z,100599.58
2018-08-09T00:32:26.169Z,100594.00
2018-08-09T00:33:29.575Z,100597.20
2018-08-09T00:34:32.979Z,100596.19
2018-08-09T00:35:36.390Z,100596.79
2018-08-09T00:36:40.019Z,100599.58
2018-08-09T00:37:43.466Z,100590.41
2018-08-09T00:38:46.896Z,100582.83
2018-08-09T00:39:50.269Z,100591.20
2018-08-09T00:40:53.637Z,100591.20
2018-08-09T00:41:57.050Z,100586.61
2018-08-09T00:43:00.462Z,100586.81
2018-08-09T00:44:03.906Z,100583.22
2018-08-09T00:45:07.555Z,100586.22
2018-08-09T00:46:10.945Z,100584.81
2018-08-09T00:47:14.333Z,100581.22
2018-08-09T00:48:17.762Z,100588.20
2018-08-09T00:49:21.145Z,100580.42
2018-08-09T00:50:24.541Z,100574.23
2018-08-09T00:51:27.943Z,100582.83
2018-08-09T00:52:31.339Z,100575.64
2018-08-09T00:53:34.741Z,100581.43
2018-08-09T00:54:38.139Z,100581.22
2018-08-09T00:55:41.521Z,100580.03
2018-08-09T00:56:44.937Z,100581.22
2018-08-09T00:57:48.336Z,100578.63
2018-08-09T00:58:51.748Z,100581.43
2018-08-09T00:59:55.159Z,100573.84
2018-08-09T01:00:58.568Z,100581.62
2018-08-09T01:02:01.982Z,100578.04
2018-08-09T01:03:05.398Z,100579.64
2018-08-09T01:04:08.829Z,100577.65
2018-08-09T01:05:12.212Z,100574.66
2018-08-09T01:06:15.788Z,100576.05
2018-08-09T01:07:19.308Z,100574.05
2018-08-09T01:08:22.698Z,100569.87
2018-08-09T01:09:26.096Z,100570.66
2018-08-09T01:10:29.479Z,100571.05
2018-08-09T01:11:32.932Z,100573.25
2018-08-09T01:12:36.350Z,100573.45
2018-08-09T01:13:39.753Z,100567.67
2018-08-09T01:14:43.159Z,100567.67
2018-08-09T01:15:46.540Z,100567.67
2018-08-09T01:16:49.966Z,100564.08
2018-08-09T01:17:53.388Z,100573.25
2018-08-09T01:18:56.816Z,100571.86
2018-08-09T01:20:00.264Z,100565.08
2018-08-09T01:21:03.669Z,100563.48
2018-08-09T01:22:07.102Z,100556.50
2018-08-09T01:23:10.534Z,100560.69
2018-08-09T01:24:13.957Z,100560.89
2018-08-09T01:25:17.494Z,100556.70
2018-08-09T01:26:21.078Z,100553.11
2018-08-09T01:27:24.457Z,100558.09
2018-08-09T01:28:27.858Z,100553.11
2018-08-09T01:29:31.412Z,100555.70
2018-08-09T01:30:34.851Z,100552.31
2018-08-09T01:31:39.012Z,100555.70
2018-08-09T01:32:42.426Z,100554.09
2018-08-09T01:33:45.808Z,100554.90
2018-08-09T01:34:49.240Z,100555.49
2018-08-09T01:35:52.684Z,100551.91
2018-08-09T01:36:56.084Z,100556.09
2018-08-09T01:37:59.497Z,100551.91
2018-08-09T01:39:04.960Z,100552.70
2018-08-09T01:40:08.404Z,100549.11
2018-08-09T01:41:11.830Z,100549.31
2018-08-09T01:42:26.496Z,100545.72
2018-08-09T01:43:41.301Z,100547.71
2018-08-09T01:44:44.813Z,100542.72
2018-08-09T01:45:48.240Z,100545.52
2018-08-09T01:46:51.628Z,100545.72
2018-08-09T01:47:55.013Z,100550.70
2018-08-09T01:48:58.971Z,100549.91
2018-08-09T01:50:02.645Z,100553.30
2018-08-09T01:51:06.117Z,100556.30
2018-08-09T01:52:09.554Z,100550.50
2018-08-09T01:53:13.326Z,100555.49
2018-08-09T01:54:16.744Z,100560.48
2018-08-09T01:55:20.166Z,100558.29
2018-08-09T01:56:23.628Z,100561.67
2018-08-09T01:57:27.037Z,100560.28
2018-08-09T01:58:30.443Z,100557.48
2018-08-09T01:59:33.849Z,100555.88
2018-08-09T02:00:37.232Z,100555.29
2018-08-09T02:01:40.612Z,100561.47
2018-08-09T02:02:44.020Z,100551.91
2018-08-09T02:03:47.450Z,100552.30
2018-08-09T02:04:50.957Z,100544.72
2018-08-09T02:05:54.248Z,100544.12
2018-08-09T02:06:57.622Z,100546.11
2018-08-09T02:08:01.065Z,100549.50
2018-08-09T02:09:11.447Z,100541.72
2018-08-09T02:10:14.882Z,100538.72
2018-08-09T02:11:18.373Z,100540.33
2018-08-09T02:12:21.768Z,100540.33
2018-08-09T02:13:25.186Z,100537.53
2018-08-09T02:14:28.568Z,100540.53
2018-08-09T02:15:31.968Z,100537.53
2018-08-09T02:16:35.357Z,100527.55
2018-08-09T02:17:38.756Z,100526.16
2018-08-09T02:18:42.169Z,100517.78
2018-08-09T02:19:45.571Z,100522.17
2018-08-09T02:20:48.996Z,100511.99
2018-08-09T02:21:52.361Z,100517.58
2018-08-09T02:22:55.729Z,100516.38
2018-08-09T02:23:59.140Z,100507.20
2018-08-09T02:25:02.551Z,100509.80
2018-08-09T02:26:05.977Z,100510.59
2018-08-09T02:27:09.391Z,100510.59
2018-08-09T02:28:12.825Z,100516.78
2018-08-09T02:29:16.280Z,100512.59
2018-08-09T02:30:19.724Z,100515.98
2018-08-09T02:31:23.137Z,100514.78
2018-08-09T02:32:26.536Z,100509.00
2018-08-09T02:33:29.980Z,100505.61
2018-08-09T02:34:33.380Z,100508.60
2018-08-09T02:35:36.785Z,100512.80
2018-08-09T02:36:40.174Z,100510.00
2018-08-09T02:37:44.159Z,100505.02
2018-08-09T02:38:47.574Z,100500.23
2018-08-09T02:39:50.983Z,100500.82
2018-08-09T02:40:54.353Z,100500.82
2018-08-09T02:41:57.756Z,100499.42
2018-08-09T02:43:01.178Z,100497.44
2018-08-09T02:44:04.612Z,100498.83
2018-08-09T02:45:08.004Z,100496.03
2018-08-09T02:46:11.421Z,100491.05
2018-08-09T02:47:14.830Z,100499.22
2018-08-09T02:48:18.256Z,100498.83
2018-08-09T02:49:21.622Z,100507.41
2018-08-09T02:50:24.985Z,100501.83
2018-08-09T02:51:28.580Z,100494.25
2018-08-09T02:52:32.169Z,100501.23
2018-08-09T02:53:35.596Z,100494.25
2018-08-09T02:54:38.962Z,100477.89
2018-08-09T02:55:42.375Z,100473.70
2018-08-09T02:56:45.811Z,100472.90
2018-08-09T02:57:49.206Z,100469.31
2018-08-09T02:58:52.573Z,100468.71
2018-08-09T02:59:56.061Z,100468.30
2018-08-09T03:00:59.438Z,100475.48
2018-08-09T03:02:02.851Z,100470.70
2018-08-09T03:03:06.517Z,100475.48
2018-08-09T03:04:09.926Z,100473.09
2018-08-09T03:05:13.341Z,100478.67
2018-08-09T03:06:16.784Z,100477.08
2018-08-09T03:07:20.191Z,100472.49
2018-08-09T03:08:23.640Z,100478.67
2018-08-09T03:09:27.045Z,100474.09
2018-08-09T03:10:30.424Z,100470.30
2018-08-09T03:11:33.835Z,100469.70
2018-08-09T03:12:37.247Z,100472.70
2018-08-09T03:13:40.669Z,100469.70
2018-08-09T03:14:44.064Z,100478.48
2018-08-09T03:15:47.460Z,100476.28
2018-08-09T03:16:50.842Z,100473.89
2018-08-09T03:17:54.247Z,100474.89
2018-08-09T03:18:57.683Z,100475.48
2018-08-09T03:20:01.051Z,100472.49
2018-08-09T03:21:04.462Z,100472.90
2018-08-09T03:22:07.896Z,100471.70
2018-08-09T03:23:11.295Z,100469.91
2018-08-09T03:24:14.737Z,100465.91
2018-08-09T03:25:18.144Z,100470.09
2018-08-09T03:26:21.571Z,100467.50
2018-08-09T03:27:24.970Z,100469.89
2018-08-09T03:28:28.356Z,100472.09
2018-08-09T03:29:31.743Z,100476.27
2018-08-09T03:30:35.140Z,100476.02
2018-08-09T03:31:38.576Z,100475.48
2018-08-09T03:32:41.953Z,100484.39
2018-08-09T03:33:45.348Z,100478.40
2018-08-09T03:34:48.789Z,100481.98
2018-08-09T03:35:52.199Z,100474.80
2018-08-09T03:36:55.608Z,100479.59
2018-08-09T03:37:59.015Z,100477.39
2018-08-09T03:39:02.469Z,100472.61
2018-08-09T03:40:06.187Z,100468.22
2018-08-09T03:41:09.586Z,100473.80
2018-08-09T03:42:13.034Z,100474.20
2018-08-09T03:43:16.436Z,100471.61
2018-08-09T03:44:19.836Z,100472.00
2018-08-09T03:45:23.278Z,100470.01
2018-08-09T03:46:26.673Z,100465.82
2018-08-09T03:47:30.075Z,100466.62
2018-08-09T03:48:33.463Z,100469.41
2018-08-09T03:49:36.870Z,100463.83
2018-08-09T03:50:40.288Z,100463.63
2018-08-09T03:51:43.753Z,100462.44
2018-08-09T03:52:47.205Z,100466.62
2018-08-09T03:53:50.565Z,100469.41
2018-08-09T03:54:54.070Z,100478.59
2018-08-09T03:55:57.490Z,100470.81
2018-08-09T03:57:00.898Z,100471.41
2018-08-09T03:58:04.308Z,100466.42
2018-08-09T03:59:07.696Z,100470.61
2018-08-09T04:00:11.304Z,100469.80
2018-08-09T04:01:14.800Z,100473.39
2018-08-09T04:02:18.196Z,100477.59
2018-08-09T04:03:21.610Z,100481.77
2018-08-09T04:04:25.046Z,100481.77
2018-08-09T04:05:28.828Z,100480.17
2018-08-09T04:06:32.238Z,100478.98
2018-08-09T04:07:35.673Z,100483.17
2018-08-09T04:08:39.042Z,100480.97
2018-08-09T04:09:42.458Z,100476.78
2018-08-09T04:10:45.847Z,100475.98
2018-08-09T04:11:49.300Z,100473.99
2018-08-09T04:12:52.672Z,100477.38
2018-08-09T04:13:56.073Z,100470.40
2018-08-09T04:15:00.256Z,100470.20
2018-08-09T04:16:03.676Z,100472.98
2018-08-09T04:17:12.249Z,100473.79
2018-08-09T04:18:15.639Z,100468.61
2018-08-09T04:19:19.044Z,100477.17
2018-08-09T04:20:22.576Z,100477.55
2018-08-09T04:21:25.958Z,100475.30
2018-08-09T04:22:29.362Z,100477.99
2018-08-09T04:23:32.769Z,100479.30
2018-08-09T04:24:36.186Z,100481.38
2018-08-09T04:25:39.569Z,100474.83
2018-08-09T04:26:43.053Z,100480.54
2018-08-09T04:27:46.507Z,100479.45
2018-08-09T04:28:50.160Z,100482.92
2018-08-09T04:29:53.629Z,100474.71
2018-08-09T04:30:57.072Z,100474.86
2018-08-09T04:32:00.456Z,100465.64
2018-08-09T04:33:03.841Z,100462.28
2018-08-09T04:34:07.229Z,100462.19
2018-08-09T04:35:10.602Z,100458.57
2018-08-09T04:36:14.332Z,100457.28
2018-08-09T04:37:17.782Z,100453.97
2018-08-09T04:38:21.181Z,100455.47
2018-08-09T04:39:24.558Z,100450.76
2018-08-09T04:40:27.973Z,100447.72
2018-08-09T04:41:31.366Z,100443.44
2018-08-09T04:42:34.795Z,100437.41
2018-08-09T04:43:38.188Z,100435.17
2018-08-09T04:44:41.592Z,100439.66
2018-08-09T04:45:45.144Z,100437.41
2018-08-09T04:46:48.550Z,100435.60
2018-08-09T04:47:51.983Z,100422.88
2018-08-09T04:48:55.362Z,100434.59
2018-08-09T04:49:58.730Z,100431.77
2018-08-09T04:51:02.141Z,100429.20
2018-08-09T04:52:05.631Z,100435.18
2018-08-09T04:53:09.060Z,100441.92
2018-08-09T04:54:12.497Z,100448.28
2018-08-09T04:55:15.942Z,100447.53
2018-08-09T04:56:19.340Z,100445.55
2018-08-09T04:57:22.732Z,100448.38
2018-08-09T04:58:26.210Z,100446.39
2018-08-09T04:59:29.723Z,100447.27
2018-08-09T05:00:33.152Z,100443.90
2018-08-09T05:01:36.533Z,100447.10
2018-08-09T05:02:39.932Z,100450.90
2018-08-09T05:03:43.328Z,100442.55
2018-08-09T05:04:46.822Z,100445.55
2018-08-09T05:05:50.232Z,100446.13
2018-08-09T05:06:53.624Z,100441.75
2018-08-09T05:07:57.030Z,100445.55
2018-08-09T05:09:00.456Z,100447.31
2018-08-09T05:10:10.857Z,100440.95
2018-08-09T05:11:14.277Z,100435.97
2018-08-09T05:12:17.680Z,100431.59
2018-08-09T05:13:21.126Z,100426.99
2018-08-09T05:14:24.577Z,100432.06
2018-08-09T05:15:28.003Z,100428.64
2018-08-09T05:16:31.452Z,100427.80
2018-08-09T05:17:35.196Z,100429.95
2018-08-09T05:18:38.624Z,100431.05
2018-08-09T05:19:42.013Z,100434.21
2018-08-09T05:20:45.424Z,100433.03
2018-08-09T05:21:48.834Z,100436.62
2018-08-09T05:22:52.232Z,100427.05
2018-08-09T05:23:55.632Z,100425.82
2018-08-09T05:24:59.044Z,100422.62
2018-08-09T05:26:02.459Z,100420.42
2018-08-09T05:27:05.895Z,100419.63
2018-08-09T05:28:09.510Z,100427.37
2018-08-09T05:29:12.897Z,100421.60
2018-08-09T05:30:16.320Z,100421.36
2018-08-09T05:31:19.769Z,100429.95
2018-08-09T05:32:23.157Z,100431.92
2018-08-09T05:33:26.594Z,100424.97
2018-08-09T05:34:29.998Z,100433.36
2018-08-09T05:35:33.436Z,100428.23
2018-08-09T05:36:36.868Z,100435.17
2018-08-09T05:37:41.068Z,100427.47
2018-08-09T05:38:44.460Z,100431.86
2018-08-09T05:39:47.879Z,100429.83
2018-08-09T05:40:51.300Z,100428.98
2018-08-09T05:41:54.849Z,100424.44
2018-08-09T05:42:58.248Z,100424.86
2018-08-09T05:44:01.640Z,100414.74
2018-08-09T05:45:05.803Z,100413.39
2018-08-09T05:46:09.441Z,100409.02
2018-08-09T05:47:12.855Z,100409.81
2018-08-09T05:48:16.257Z,100409.60
2018-08-09T05:49:19.668Z,100399.87
2018-08-09T05:50:23.095Z,100393.67
2018-08-09T05:51:26.506Z,100386.89
2018-08-09T05:52:29.904Z,100383.82
2018-08-09T05:53:33.313Z,100387.91
2018-08-09T05:54:36.746Z,100388.25
2018-08-09T05:55:40.145Z,100388.95
2018-08-09T05:56:43.648Z,100388.45
2018-08-09T05:57:47.096Z,100392.58
2018-08-09T05:58:50.453Z,100390.33
2018-08-09T05:59:53.867Z,100398.46
2018-08-09T06:00:57.304Z,100401.45
2018-08-09T06:02:00.691Z,100395.09
2018-08-09T06:03:04.139Z,100388.56
2018-08-09T06:04:08.069Z,100389.32
2018-08-09T06:05:11.442Z,100387.55
2018-08-09T06:06:14.942Z,100384.94
2018-08-09T06:07:18.376Z,100380.77
2018-08-09T06:08:21.765Z,100387.34
2018-08-09T06:09:25.191Z,100385.58
2018-08-09T06:10:28.659Z,100386.67
2018-08-09T06:11:32.084Z,100380.48
2018-08-09T06:12:35.490Z,100383.58
2018-08-09T06:13:38.965Z,100380.85
2018-08-09T06:14:42.362Z,100374.92
2018-08-09T06:15:45.818Z,100380.69
2018-08-09T06:16:49.301Z,100379.72
2018-08-09T06:17:52.738Z,100374.62
2018-08-09T06:18:56.205Z,100377.07
2018-08-09T06:19:59.585Z,100374.93
2018-08-09T06:21:03.021Z,100368.41
2018-08-09T06:22:06.912Z,100374.97
2018-08-09T06:23:10.388Z,100372.27
2018-08-09T06:24:13.784Z,100376.44
2018-08-09T06:25:17.193Z,100373.00
2018-08-09T06:26:20.843Z,100375.05
2018-08-09T06:27:24.251Z,100360.48
2018-08-09T06:28:27.706Z,100364.66
2018-08-09T06:29:31.140Z,100363.05
2018-08-09T06:30:34.619Z,100359.27
2018-08-09T06:31:38.080Z,100364.23
2018-08-09T06:32:41.537Z,100364.98
2018-08-09T06:33:45.165Z,100366.00
2018-08-09T06:34:48.605Z,100368.99
2018-08-09T06:35:52.059Z,100369.04
2018-08-09T06:36:55.514Z,100367.52
2018-08-09T06:37:59.148Z,100360.98
2018-08-09T06:39:02.680Z,100362.37
2018-08-09T06:40:08.883Z,100366.17
2018-08-09T06:41:12.418Z,100358.58
2018-08-09T06:42:16.012Z,100355.34
2018-08-09T06:43:19.452Z,100357.28
2018-08-09T06:44:22.848Z,100351.51
2018-08-09T06:45:26.271Z,100353.28
2018-08-09T06:46:29.808Z,100354.24
2018-08-09T06:47:33.551Z,100349.91
2018-08-09T06:48:36.958Z,100342.95
2018-08-09T06:49:40.375Z,100341.41
2018-08-09T06:50:43.885Z,100344.23
2018-08-09T06:51:47.392Z,100340.89
2018-08-09T06:52:50.810Z,100336.77
2018-08-09T06:53:54.226Z,100341.14
2018-08-09T06:54:57.680Z,100342.37
2018-08-09T06:56:01.098Z,100344.56
2018-08-09T06:57:04.972Z,100354.67
2018-08-09T06:58:08.467Z,100353.06
2018-08-09T06:59:11.937Z,100350.88
2018-08-09T07:00:15.345Z,100342.91
2018-08-09T07:01:18.769Z,100338.16
2018-08-09T07:02:22.177Z,100335.80
2018-08-09T07:03:25.587Z,100326.06
2018-08-09T07:04:29.042Z,100322.48
2018-08-09T07:05:32.610Z,100314.31
2018-08-09T07:06:36.012Z,100312.70
2018-08-09T07:07:40.062Z,100319.00
2018-08-09T07:08:43.476Z,100319.33
2018-08-09T07:09:47.001Z,100320.72
2018-08-09T07:10:50.388Z,100318.57
2018-08-09T07:11:53.774Z,100315.20
2018-08-09T07:12:57.209Z,100307.73
2018-08-09T07:14:00.610Z,100307.78
2018-08-09T07:15:05.173Z,100310.02
2018-08-09T07:16:08.618Z,100309.91
2018-08-09T07:17:12.004Z,100309.64
2018-08-09T07:18:15.444Z,100306.91
2018-08-09T07:19:18.845Z,100310.34
2018-08-09T07:20:22.282Z,100306.80
2018-08-09T07:21:25.791Z,100308.81
2018-08-09T07:22:29.250Z,100306.66
2018-08-09T07:23:32.765Z,100306.11
2018-08-09T07:24:36.161Z,100307.15
2018-08-09T07:25:39.573Z,100312.16
2018-08-09T07:26:42.965Z,100305.03
2018-08-09T07:27:46.372Z,100312.40
2018-08-09T07:28:49.883Z,100316.99
2018-08-09T07:29:53.346Z,100306.28
2018-08-09T07:30:56.757Z,100303.70
2018-08-09T07:32:00.230Z,100305.55
2018-08-09T07:33:03.685Z,100301.58
2018-08-09T07:34:07.059Z,100304.78
2018-08-09T07:35:11.292Z,100309.37
2018-08-09T07:36:14.744Z,100303.20
2018-08-09T07:37:18.212Z,100298.44
2018-08-09T07:38:21.656Z,100298.27
2018-08-09T07:39:25.136Z,100291.90
2018-08-09T07:40:28.531Z,100299.87
2018-08-09T07:41:31.961Z,100300.88
2018-08-09T07:42:35.357Z,100292.73
2018-08-09T07:43:38.766Z,100297.35
2018-08-09T07:44:42.189Z,100294.56
2018-08-09T07:45:45.611Z,100295.78
2018-08-09T07:46:49.072Z,100297.77
2018-08-09T07:47:52.562Z,100295.40
2018-08-09T07:48:55.989Z,100298.19
2018-08-09T07:49:59.366Z,100298.39
2018-08-09T07:51:02.857Z,100299.99
2018-08-09T07:52:06.276Z,100295.81
2018-08-09T07:53:09.724Z,100297.44
2018-08-09T07:54:13.235Z,100299.05
2018-08-09T07:55:16.644Z,100300.64
2018-08-09T07:56:20.077Z,100293.89
2018-08-09T07:57:23.498Z,100296.88
2018-08-09T07:58:26.939Z,100286.93
2018-08-09T07:59:30.344Z,100288.53
2018-08-09T08:00:33.783Z,100293.71
2018-08-09T08:01:37.180Z,100289.53
2018-08-09T08:02:41.011Z,100288.95
2018-08-09T08:03:44.498Z,100286.95
2018-08-09T08:04:47.930Z,100288.00
2018-08-09T08:05:51.398Z,100288.00
2018-08-09T08:06:54.733Z,100287.41
2018-08-09T08:07:58.157Z,100282.64
2018-08-09T08:09:01.567Z,100285.42
2018-08-09T08:10:06.498Z,100278.66
2018-08-09T08:11:09.924Z,100275.67
2018-08-09T08:12:13.359Z,100278.28
2018-08-09T08:13:18.608Z,100276.09
2018-08-09T08:14:22.045Z,100269.12
2018-08-09T08:15:25.450Z,100264.56
2018-08-09T08:16:28.842Z,100265.16
2018-08-09T08:17:32.234Z,100262.58
2018-08-09T08:18:35.731Z,100252.03
2018-08-09T08:19:39.143Z,100247.47
2018-08-09T08:20:42.608Z,100248.86
2018-08-09T08:21:45.981Z,100251.64
2018-08-09T08:22:49.401Z,100251.05
2018-08-09T08:23:52.855Z,100246.28
2018-08-09T08:24:56.432Z,100243.50
2018-08-09T08:25:59.865Z,100247.88
2018-08-09T08:27:03.269Z,100246.48
2018-08-09T08:28:06.704Z,100250.66
2018-08-09T08:29:10.166Z,100252.86
2018-08-09T08:30:14.469Z,100250.87
2018-08-09T08:31:17.872Z,100248.09
2018-08-09T08:32:21.238Z,100243.91
2018-08-09T08:33:24.670Z,100241.33
2018-08-09T08:34:28.128Z,100239.73
2018-08-09T08:35:32.013Z,100232.39
2018-08-09T08:36:35.418Z,100233.19
2018-08-09T08:37:39.278Z,100232.59
2018-08-09T08:38:42.707Z,100230.40
2018-08-09T08:39:46.160Z,100229.60
2018-08-09T08:40:49.557Z,100229.80
2018-08-09T08:41:52.998Z,100230.40
2018-08-09T08:42:56.405Z,100231.20
2018-08-09T08:43:59.818Z,100243.73
2018-08-09T08:45:03.289Z,100238.36
2018-08-09T08:46:06.802Z,100242.19
2018-08-09T08:47:10.267Z,100232.20
2018-08-09T08:48:13.720Z,100228.83
2018-08-09T08:49:17.186Z,100226.04
2018-08-09T08:50:20.573Z,100225.68
2018-08-09T08:51:24.012Z,100224.29
2018-08-09T08:52:27.479Z,100224.29
2018-08-09T08:53:30.904Z,100226.69
2018-08-09T08:54:34.289Z,100217.53
2018-08-09T08:55:37.710Z,100216.73
2018-08-09T08:56:41.186Z,100214.95
2018-08-09T08:57:44.671Z,100212.56
2018-08-09T08:58:48.129Z,100213.56
2018-08-09T08:59:51.550Z,100214.95
2018-08-09T09:00:54.966Z,100212.17
2018-08-09T09:01:58.412Z,100217.14
2018-08-09T09:03:01.857Z,100215.16
2018-08-09T09:04:05.292Z,100216.34
2018-08-09T09:05:10.667Z,100215.16
2018-08-09T09:06:14.161Z,100207.99
2018-08-09T09:07:17.584Z,100209.59
2018-08-09T09:08:21.150Z,100201.44
2018-08-09T09:09:24.542Z,100200.84
2018-08-09T09:10:27.969Z,100204.42
2018-08-09T09:11:31.370Z,100198.06
2018-08-09T09:12:34.964Z,100200.25
2018-08-09T09:13:38.550Z,100197.47
2018-08-09T09:14:42.052Z,100193.29
2018-08-09T09:15:45.840Z,100187.72
2018-08-09T09:16:49.261Z,100179.95
2018-08-09T09:17:52.700Z,100179.95
2018-08-09T09:18:56.115Z,100175.19
2018-08-09T09:19:59.552Z,100174.80
2018-08-09T09:21:02.985Z,100167.62
2018-08-09T09:22:06.515Z,100158.48
2018-08-09T09:23:09.945Z,100163.66
2018-08-09T09:24:13.356Z,100167.23
2018-08-09T09:25:16.762Z,100163.06
2018-08-09T09:26:20.219Z,100149.73
2018-08-09T09:27:23.636Z,100152.72
2018-08-09T09:28:27.033Z,100153.52
2018-08-09T09:29:30.440Z,100140.78
2018-08-09T09:30:33.801Z,100143.77
2018-08-09T09:31:37.208Z,100149.34
2018-08-09T09:32:40.622Z,100145.16
2018-08-09T09:33:44.981Z,100144.36
2018-08-09T09:34:48.426Z,100149.34
2018-08-09T09:35:51.871Z,100136.80
2018-08-09T09:36:55.369Z,100132.63
2018-08-09T09:37:58.764Z,100127.27
2018-08-09T09:39:02.884Z,100120.50
2018-08-09T09:40:07.103Z,100115.53
2018-08-09T09:41:11.128Z,100118.31
2018-08-09T09:42:14.549Z,100110.55
2018-08-09T09:43:18.053Z,100109.95
2018-08-09T09:44:21.486Z,100102.99
2018-08-09T09:45:24.895Z,100104.59
2018-08-09T09:46:28.309Z,100095.64
2018-08-09T09:47:31.751Z,100084.50
2018-08-09T09:48:35.158Z,100078.13
2018-08-09T09:49:38.580Z,100063.61
2018-08-09T09:50:42.018Z,100055.25
2018-08-09T09:51:45.439Z,100058.63
2018-08-09T09:52:48.836Z,100045.50
2018-08-09T09:53:52.255Z,100047.50
2018-08-09T09:54:55.661Z,100047.70
2018-08-09T09:55:59.075Z,100044.11
2018-08-09T09:57:02.503Z,100042.92
2018-08-09T09:58:06.040Z,100038.54
2018-08-09T09:59:09.448Z,100035.16
2018-08-09T10:00:18.068Z,100034.36
2018-08-09T10:01:26.823Z,100022.03
2018-08-09T10:02:30.382Z,100020.05
2018-08-09T10:03:33.753Z,100013.68
2018-08-09T10:04:37.124Z,100008.91
2018-08-09T10:05:40.496Z,100003.33
2018-08-09T10:06:43.890Z,99999.16
2018-08-09T10:07:47.308Z,99987.22
2018-08-09T10:08:50.705Z,99988.02
2018-08-09T10:09:54.124Z,99981.28
2018-08-09T10:10:57.534Z,99979.06
2018-08-09T10:12:00.942Z,99976.52
2018-08-09T10:13:04.391Z,99976.52
2018-08-09T10:14:07.860Z,99977.11
2018-08-09T10:15:11.551Z,99972.92
2018-08-09T10:16:14.985Z,99976.52
2018-08-09T10:17:18.408Z,99970.94
2018-08-09T10:18:21.814Z,99976.52
2018-08-09T10:19:25.245Z,99978.11
2018-08-09T10:20:28.622Z,99971.14
2018-08-09T10:21:32.055Z,99976.70
2018-08-09T10:22:35.610Z,99975.31
2018-08-09T10:23:38.979Z,99978.70
2018-08-09T10:24:42.357Z,99976.31
2018-08-09T10:25:45.766Z,99971.34
2018-08-09T10:26:49.184Z,99968.95
2018-08-09T10:27:52.610Z,99976.13
2018-08-09T10:28:56.044Z,99976.13
2018-08-09T10:29:59.456Z,99968.95
2018-08-09T10:31:02.835Z,99973.34
2018-08-09T10:32:06.226Z,99964.19
2018-08-09T10:33:09.633Z,99964.19
2018-08-09T10:34:13.175Z,99958.41
2018-08-09T10:35:16.566Z,99960.80
2018-08-09T10:36:19.952Z,99959.41
2018-08-09T10:37:23.412Z,99960.80
2018-08-09T10:38:26.770Z,99962.98
2018-08-09T10:39:30.153Z,99956.63
2018-08-09T10:40:33.585Z,99957.42
2018-08-09T10:41:36.994Z,99952.44
2018-08-09T10:42:40.460Z,99953.84
2018-08-09T10:43:43.846Z,99952.64
2018-08-09T10:44:47.662Z,99951.05
2018-08-09T10:45:51.041Z,99947.08
2018-08-09T10:46:54.428Z,99945.68
2018-08-09T10:47:57.952Z,99939.31
2018-08-09T10:49:01.385Z,99946.08
2018-08-09T10:50:04.892Z,99947.67
2018-08-09T10:51:09.005Z,99944.69
2018-08-09T10:52:12.917Z,99944.89
2018-08-09T10:53:16.349Z,99937.92
2018-08-09T10:54:20.138Z,99936.53
2018-08-09T10:55:23.560Z,99929.56
2018-08-09T10:56:27.206Z,99930.95
2018-08-09T10:57:30.606Z,99917.03
2018-08-09T10:58:34.031Z,99927.58
2018-08-09T10:59:37.790Z,99918.42
2018-08-09T11:00:41.687Z,99919.42
2018-08-09T11:01:45.123Z,99903.30
2018-08-09T11:02:48.527Z,99908.28
2018-08-09T11:03:52.112Z,99899.92
2018-08-09T11:04:55.520Z,99897.33
2018-08-09T11:05:58.970Z,99889.77
2018-08-09T11:07:02.379Z,99894.74
2018-08-09T11:08:06.040Z,99881.41
2018-08-09T11:09:11.263Z,99881.61
2018-08-09T11:10:14.689Z,99878.23
2018-08-09T11:11:18.120Z,99873.48
2018-08-09T11:12:21.569Z,99873.69
2018-08-09T11:13:24.964Z,99869.70
2018-08-09T11:14:28.358Z,99871.09
2018-08-09T11:15:31.754Z,99875.47
2018-08-09T11:16:35.152Z,99876.27
2018-08-09T11:17:40.002Z,99870.09
2018-08-09T11:18:44.250Z,99874.08
2018-08-09T11:19:48.512Z,99872.29
2018-08-09T11:20:52.567Z,99868.91
2018-08-09T11:21:56.011Z,99866.13
2018-08-09T11:22:59.438Z,99868.91
2018-08-09T11:24:03.187Z,99868.91
2018-08-09T11:25:07.477Z,99871.69
2018-08-09T11:26:10.879Z,99866.52
2018-08-09T11:27:14.289Z,99862.53
2018-08-09T11:28:17.741Z,99864.13
2018-08-09T11:29:21.155Z,99862.94
2018-08-09T11:30:24.526Z,99861.54
2018-08-09T11:31:28.158Z,99861.14
2018-08-09T11:32:31.548Z,99861.73
2018-08-09T11:33:34.924Z,99852.19
2018-08-09T11:34:38.330Z,99848.60
2018-08-09T11:35:41.759Z,99848.60
2018-08-09T11:36:45.145Z,99851.39
2018-08-09T11:37:50.810Z,99850.80
2018-08-09T11:38:54.240Z,99848.60
2018-08-09T11:39:57.726Z,99847.81
2018-08-09T11:41:01.118Z,99846.61
2018-08-09T11:42:04.552Z,99843.63
2018-08-09T11:43:08.949Z,99836.06
2018-08-09T11:44:14.175Z,99830.30
2018-08-09T11:45:21.694Z,99823.33
2018-08-09T11:46:24.912Z,99823.53
2018-08-09T11:47:28.302Z,99819.16
2018-08-09T11:48:32.149Z,99815.38
2018-08-09T11:49:35.610Z,99815.97
2018-08-09T11:50:40.869Z,99814.97
2018-08-09T11:51:44.274Z,99811.39
2018-08-09T11:52:47.712Z,99814.38
2018-08-09T11:53:51.135Z,99813.97
2018-08-09T11:54:54.702Z,99808.80
2018-08-09T11:55:58.121Z,99810.79
2018-08-09T11:57:01.588Z,99806.81
2018-08-09T11:58:06.072Z,99810.20
2018-08-09T11:59:10.195Z,99802.03
2018-08-09T12:00:13.744Z,99792.08
2018-08-09T12:01:17.787Z,99783.12
2018-08-09T12:02:22.276Z,99778.95
2018-08-09T12:03:25.728Z,99766.61
2018-08-09T12:04:30.124Z,99750.48
2018-08-09T12:05:35.050Z,99757.45
2018-08-09T12:06:38.454Z,99757.65
2018-08-09T12:07:42.014Z,99761.63
2018-08-09T12:08:45.481Z,99757.45